• Join FlightAware (Why Join?)
  • Login
  • US Flag 
03:45PM EDT


 

Airport Tracker/Info


-or-


 

Live Flight TrackerFlight Track Log ✈ N171CA ✈ 23-May-2013 ✈ KCRG - KSFB

Flight Track Log - Related Links

Times and Time Zones

All times are in EDT time to prevent confusion due to time zone crossing. See the N171CA flight status page for this flight to view local times or setup timezone preferences in your user account.

Time Position Orientation Groundspeed Altitude Reporting Facility
EDT Latitude Longitude Course Direction KTS MPH feet Rate Location/Type
09:04AM 30.3219 -81.5281 144° Southeast 91 105 500  Level Jacksonville Center
09:05AM 30.3050 -81.5139 144° Southeast 116 133 1,200 720 Climbing Jacksonville Center
09:06AM 30.2839 -81.4853 131° Southeast 112 129 1,900 660 Climbing Jacksonville Center
09:07AM 30.2689 -81.4567 121° Southeast 108 124 2,600 660 Climbing Jacksonville Center
09:08AM 30.2436 -81.4356 144° Southeast 110 127 3,300 600 Climbing Jacksonville Center
09:09AM 30.2103 -81.4336 177° South 116 133 3,900 300 Climbing Jacksonville Center
09:10AM 30.1725 -81.4269 171° South 139 160 4,000  Climbing Jacksonville Center
09:11AM 30.1347 -81.4203 171° South 145 167 4,000  Level Jacksonville Center
09:12AM 30.0950 -81.4136 172° South 139 160 4,000 -60 Level Jacksonville Center
09:13AM 30.0553 -81.4119 178° South 143 165 3,900 -60 Descending Jacksonville Center
09:14AM 30.0136 -81.4125 181° South 142 163 3,900  Level Jacksonville Center
09:15AM 29.9739 -81.4156 184° South 137 158 3,900 60 Level Jacksonville Center
09:16AM 29.9344 -81.4161 181° South 134 154 4,100  Climbing Jacksonville Center
09:17AM 29.9011 -81.4192 185° South 137 158 4,000 -60 Descending Jacksonville Center
09:18AM 29.8633 -81.4172 177° South 139 160 4,000  Level Jacksonville Center
09:19AM 29.8236 -81.4131 175° South 139 160 4,000  Level Jacksonville Center
09:20AM 29.7861 -81.4136 181° South 138 159 4,100  Climbing Jacksonville Center
09:21AM 29.7464 -81.4167 184° South 141 162 4,000 -60 Descending Jacksonville Center
09:22AM 29.7047 -81.4150 178° South 142 163 4,000  Level Jacksonville Center
09:23AM 29.6672 -81.4156 181° South 137 158 4,000  Level Jacksonville Center
09:24AM 29.6317 -81.4158 180° South 134 154 4,000  Level Jacksonville Center
09:25AM 29.5942 -81.4164 181° South 137 158 4,000  Level Jacksonville Center
09:26AM 29.5564 -81.4122 175° South 136 157 4,000  Level Jacksonville Center
09:27AM 29.5208 -81.4081 174° South 137 158 4,000  Level Jacksonville Center
09:28AM 29.4792 -81.4089 181° South 139 160 4,000  Level Jacksonville Center
09:29AM 29.4375 -81.4022 172° South 139 160 4,000  Level Jacksonville Center
09:30AM 29.3956 -81.4006 178° South 140 161 4,000 -60 Level Jacksonville Center
09:31AM 29.3600 -81.4011 181° South 141 162 3,900  Descending Jacksonville Center
09:32AM 29.3225 -81.4017 181° South 137 158 4,000  Climbing Jacksonville Center
09:33AM 29.2850 -81.3975 174° South 136 157 3,900  Descending Jacksonville Center
09:34AM 29.2431 -81.3933 175° South 135 155 4,000  Climbing Jacksonville Center
09:35AM 29.2036 -81.3961 184° South 136 157 4,000  Level Jacksonville Center
09:36AM 29.1658 -81.3944 178° South 141 162 4,000 -60 Level Jacksonville Center
09:39AM 29.0667 -81.3833 174° South 141 162 3,900 -60 Descending Orlando TRACON
09:40AM 29.0333 -81.3833 180° South 139 160 3,900  Level Orlando TRACON
09:41AM 29.0000 -81.3833 180° South 138 159 4,000  Climbing Orlando TRACON
09:42AM 28.9667 -81.3833 180° South 139 160 4,000  Level Orlando TRACON
09:43AM 28.9167 -81.3833 180° South 138 159 4,000 -300 Level Orlando TRACON
09:44AM 28.8833 -81.3833 180° South 141 162 3,400 -600 Descending Orlando TRACON
09:45AM 28.8500 -81.4000 204° Southwest 145 167 2,800 -660 Descending Orlando TRACON
09:46AM 28.8000 -81.4000 180° South 136 157 2,100 -600 Descending Orlando TRACON
09:47AM 28.7833 -81.3833 139° Southeast 127 146 1,700 -300 Descending Orlando TRACON
09:48AM 28.7833 -81.3667 90° East 100 115 1,600 -240 Descending Orlando TRACON
09:49AM 28.7833 -81.3333 90° East 105 121 1,300 -420 Descending Orlando TRACON
09:50AM 28.7833 -81.3000 90° East 105 121 800 -540 Descending Orlando TRACON
09:52AM 28.7759 -81.2332 97° East  Level FlightAware Approximate
09:59AM 28.7767 -81.2355 270° West  Level Estimated
10:00AM 28.7767 -81.2355 270° West  Level Estimated
10:01AM 28.7767 -81.2355 95° East  Level Estimated